Time;durP1;ratioP1;P1;durP2;ratioP2;P2;SDS_P1;SDS_P2;PMS_P1;PMS_P2;Temp;Humidity;BMP_temperature;BMP_pressure;BME280_temperature;BME280_humidity;BME280_pressure;Samples;Min_cycle;Max_cycle;Signal;HPM_P1;HPM_P2
2023/01/31 04:00:43;;;;;;;3.30;2.60;;;3.60;83.30;;;;;;5978420;23;20402;-70
2023/01/31 04:03:16;;;;;;;3.50;2.40;;;3.50;83.60;;;;;;4937841;29;20456;-69
2023/01/31 04:05:44;;;;;;;3.90;3.00;;;3.50;83.50;;;;;;4937594;29;20440;-69
2023/01/31 04:08:11;;;;;;;3.27;2.30;;;3.60;83.50;;;;;;4937574;29;20612;-70
2023/01/31 04:10:37;;;;;;;3.40;2.43;;;3.60;83.10;;;;;;4937402;29;20448;-70
2023/01/31 04:13:04;;;;;;;4.13;2.77;;;3.60;82.90;;;;;;4937095;29;20877;-69
2023/01/31 04:15:31;;;;;;;4.20;2.70;;;3.60;82.70;;;;;;4937690;29;20886;-69
2023/01/31 04:17:59;;;;;;;5.33;3.13;;;3.60;82.70;;;;;;4937022;29;20845;-71
2023/01/31 04:20:25;;;;;;;4.70;2.63;;;3.70;82.30;;;;;;4937226;29;20451;-70
2023/01/31 04:22:52;;;;;;;2.50;1.97;;;3.70;82.10;;;;;;4937197;29;20506;-69
2023/01/31 04:25:19;;;;;;;4.80;2.83;;;3.70;82.00;;;;;;4937219;29;20448;-69
2023/01/31 04:27:45;;;;;;;6.80;3.07;;;3.70;82.10;;;;;;4936766;29;20899;-69
2023/01/31 04:30:13;;;;;;;3.23;2.60;;;3.60;82.60;;;;;;4937161;29;20918;-69
2023/01/31 04:32:39;;;;;;;3.57;2.20;;;3.70;82.30;;;;;;4937075;29;20463;-70
2023/01/31 04:35:08;;;;;;;5.90;2.60;;;3.70;82.00;;;;;;4937074;29;20456;-69
2023/01/31 04:37:35;;;;;;;5.10;2.63;;;3.60;82.10;;;;;;4936959;29;20507;-69
2023/01/31 04:40:02;;;;;;;4.20;3.10;;;3.60;82.30;;;;;;4936917;29;20456;-69
2023/01/31 04:42:28;;;;;;;4.20;2.77;;;3.60;82.30;;;;;;4936652;29;21071;-69
2023/01/31 04:44:55;;;;;;;3.90;2.60;;;3.70;82.00;;;;;;4936897;29;20499;-69
2023/01/31 04:47:22;;;;;;;6.10;2.67;;;3.40;82.40;;;;;;4936734;29;20479;-69
2023/01/31 04:49:48;;;;;;;3.07;2.10;;;3.00;84.00;;;;;;4936422;29;20444;-70
2023/01/31 04:52:16;;;;;;;3.30;2.13;;;2.90;84.80;;;;;;4936823;29;20480;-69
2023/01/31 04:54:43;;;;;;;7.07;3.33;;;2.80;85.00;;;;;;4936687;29;20458;-69
2023/01/31 04:57:09;;;;;;;4.10;2.63;;;2.90;85.40;;;;;;4936648;29;20452;-68
2023/01/31 04:59:36;;;;;;;4.97;3.63;;;2.80;85.30;;;;;;4936333;29;20855;-69
2023/01/31 05:02:03;;;;;;;5.57;3.67;;;2.70;86.10;;;;;;4936223;29;20539;-70
2023/01/31 05:04:29;;;;;;;5.23;2.60;;;2.70;86.30;;;;;;4936704;29;20456;-69
2023/01/31 05:06:56;;;;;;;4.47;2.80;;;2.50;86.80;;;;;;4936499;29;20543;-69
2023/01/31 05:09:24;;;;;;;3.50;2.60;;;2.40;87.20;;;;;;4936542;29;20458;-69
2023/01/31 05:11:51;;;;;;;4.60;2.70;;;2.30;87.60;;;;;;4936453;29;20479;-69
2023/01/31 05:14:19;;;;;;;4.50;3.13;;;2.20;87.90;;;;;;4936451;29;20459;-69
2023/01/31 05:16:46;;;;;;;4.73;3.10;;;2.20;88.40;;;;;;4936440;29;20456;-69
2023/01/31 05:19:13;;;;;;;5.80;3.70;;;2.30;88.20;;;;;;4936377;29;20535;-69
2023/01/31 05:24:21;;;;;;;5.27;3.43;;;2.10;88.80;;;;;;4936437;29;20516;-69
2023/01/31 05:26:51;;;;;;;3.30;2.70;;;1.90;89.20;;;;;;4936993;29;20484;-69
2023/01/31 05:29:18;;;;;;;5.50;3.30;;;1.80;89.70;;;;;;4936864;29;20440;-69
2023/01/31 05:31:45;;;;;;;3.87;3.43;;;1.80;89.90;;;;;;4936073;29;20472;-69
2023/01/31 05:34:14;;;;;;;3.53;3.23;;;1.80;89.80;;;;;;4936231;29;20451;-70
2023/01/31 05:36:41;;;;;;;4.47;3.30;;;1.80;90.30;;;;;;4936137;29;20562;-69
2023/01/31 05:39:08;;;;;;;5.07;3.23;;;1.90;90.20;;;;;;4936095;29;20511;-70
2023/01/31 05:41:34;;;;;;;3.60;3.07;;;1.80;90.00;;;;;;4935973;29;20467;-69
2023/01/31 05:44:03;;;;;;;5.63;4.00;;;1.80;90.10;;;;;;4935850;29;20807;-69
2023/01/31 05:46:29;;;;;;;3.33;2.90;;;1.80;90.30;;;;;;4935719;29;20949;-69
2023/01/31 05:48:56;;;;;;;4.20;3.23;;;1.90;90.30;;;;;;4935976;29;20451;-70
2023/01/31 05:51:22;;;;;;;4.17;2.80;;;2.10;90.10;;;;;;4935926;29;20527;-69
2023/01/31 05:53:49;;;;;;;5.00;3.53;;;2.20;89.10;;;;;;4936006;29;20452;-70
2023/01/31 05:56:16;;;;;;;4.00;3.60;;;2.40;88.70;;;;;;4935961;29;20864;-69
2023/01/31 05:58:43;;;;;;;4.20;2.97;;;2.30;87.60;;;;;;4937675;29;20533;-69
2023/01/31 06:01:11;;;;;;;3.00;2.70;;;2.40;87.80;;;;;;4938543;29;20485;-69
2023/01/31 06:03:37;;;;;;;3.23;2.80;;;2.50;87.10;;;;;;4939490;29;20881;-69
2023/01/31 06:06:04;;;;;;;4.10;3.60;;;2.60;86.70;;;;;;4939686;29;20448;-69
2023/01/31 06:08:31;;;;;;;4.30;3.13;;;2.60;86.20;;;;;;4939564;29;20487;-69
2023/01/31 06:11:00;;;;;;;4.23;3.27;;;2.60;85.60;;;;;;4939813;29;20569;-69
2023/01/31 06:13:27;;;;;;;6.40;3.13;;;2.60;85.70;;;;;;4939382;29;20997;-69
2023/01/31 06:15:54;;;;;;;7.43;2.97;;;2.50;85.80;;;;;;4939743;29;20511;-69
2023/01/31 06:18:22;;;;;;;7.63;3.10;;;2.50;86.20;;;;;;4939794;29;20506;-68
2023/01/31 06:20:48;;;;;;;4.80;3.27;;;2.40;86.40;;;;;;4939611;29;20886;-69
2023/01/31 06:23:15;;;;;;;5.43;3.30;;;2.30;86.10;;;;;;4939244;29;21004;-69
2023/01/31 06:25:42;;;;;;;3.50;2.80;;;2.10;87.40;;;;;;4939112;29;20941;-70
2023/01/31 06:28:08;;;;;;;4.10;2.90;;;2.10;88.30;;;;;;4939209;29;20483;-70
2023/01/31 06:30:36;;;;;;;4.23;3.23;;;2.10;88.00;;;;;;4939185;29;20971;-69
2023/01/31 06:33:03;;;;;;;3.43;2.80;;;1.90;88.50;;;;;;4939495;29;20459;-70
2023/01/31 06:35:32;;;;;;;5.27;3.07;;;1.80;88.90;;;;;;4939506;29;20503;-70
2023/01/31 06:37:59;;;;;;;4.40;3.67;;;1.70;89.60;;;;;;4939617;29;20490;-71
2023/01/31 06:40:26;;;;;;;6.23;3.73;;;1.70;90.00;;;;;;4938986;29;20976;-69
2023/01/31 06:42:52;;;;;;;6.40;3.60;;;1.70;89.90;;;;;;4939313;29;20483;-69
2023/01/31 06:45:19;;;;;;;3.90;3.50;;;1.70;90.10;;;;;;4939181;29;20459;-69
2023/01/31 06:47:46;;;;;;;6.33;3.33;;;1.70;89.90;;;;;;4939044;29;20487;-69
2023/01/31 06:50:13;;;;;;;5.47;4.23;;;1.70;90.00;;;;;;4939033;29;20875;-69
2023/01/31 06:52:41;;;;;;;4.27;2.90;;;1.60;90.20;;;;;;4939466;29;20460;-70
2023/01/31 06:55:08;;;;;;;4.50;3.20;;;1.50;90.50;;;;;;4939450;29;20455;-70
2023/01/31 06:57:35;;;;;;;3.50;2.60;;;1.70;90.30;;;;;;4939734;29;20506;-70
2023/01/31 07:00:02;;;;;;;4.27;3.50;;;1.70;89.90;;;;;;4940378;29;20451;-70
2023/01/31 07:02:29;;;;;;;4.00;3.40;;;1.70;89.60;;;;;;4939863;29;20492;-70
2023/01/31 07:04:56;;;;;;;4.80;3.60;;;1.70;89.80;;;;;;4938988;29;20941;-71
2023/01/31 07:07:23;;;;;;;4.30;3.57;;;1.80;89.90;;;;;;4940368;29;20486;-70
2023/01/31 07:09:52;;;;;;;6.77;3.43;;;1.80;89.60;;;;;;4938678;29;20861;-71
2023/01/31 07:12:19;;;;;;;6.37;4.10;;;1.90;89.50;;;;;;4938808;29;20855;-69
2023/01/31 07:14:45;;;;;;;5.77;3.30;;;1.80;89.20;;;;;;4938483;29;20459;-71
2023/01/31 07:17:12;;;;;;;4.53;3.53;;;1.90;89.50;;;;;;4939458;29;20451;-70
2023/01/31 07:19:39;;;;;;;7.10;3.43;;;2.10;89.80;;;;;;4941022;29;20454;-70
2023/01/31 07:22:05;;;;;;;5.37;3.37;;;2.30;89.10;;;;;;4940991;29;20530;-70
2023/01/31 07:24:32;;;;;;;4.43;3.00;;;2.90;88.30;;;;;;4941589;29;20511;-71
2023/01/31 07:27:00;;;;;;;6.60;3.80;;;3.70;84.60;;;;;;4941243;29;20480;-71
2023/01/31 07:29:27;;;;;;;4.87;3.40;;;4.10;82.60;;;;;;4940783;29;20463;-73
2023/01/31 07:31:55;;;;;;;3.90;2.70;;;4.90;80.30;;;;;;4940496;29;20475;-71
2023/01/31 07:34:21;;;;;;;4.77;3.20;;;5.70;76.10;;;;;;4939466;29;20942;-71
2023/01/31 07:36:48;;;;;;;4.60;3.10;;;6.20;75.90;;;;;;4939323;29;20444;-71
2023/01/31 07:39:16;;;;;;;4.43;2.73;;;7.40;73.30;;;;;;4939537;29;20452;-71
2023/01/31 07:41:42;;;;;;;3.37;2.67;;;8.30;70.20;;;;;;4938776;29;20487;-72
2023/01/31 07:44:10;;;;;;;5.30;2.40;;;9.30;66.50;;;;;;4940470;29;20511;-71
2023/01/31 07:46:37;;;;;;;4.67;3.37;;;9.40;65.90;;;;;;4941131;29;20508;-72
2023/01/31 07:49:04;;;;;;;5.37;3.33;;;10.30;63.20;;;;;;4941134;29;20516;-71
2023/01/31 07:51:30;;;;;;;4.13;2.73;;;10.80;62.00;;;;;;4941122;29;20532;-72
2023/01/31 07:53:57;;;;;;;3.33;2.60;;;11.40;60.00;;;;;;4940915;29;20476;-71
2023/01/31 07:56:24;;;;;;;2.80;2.50;;;11.90;59.20;;;;;;4941643;29;20457;-71
2023/01/31 07:58:51;;;;;;;3.50;2.70;;;12.80;56.50;;;;;;4940489;29;20941;-72
2023/01/31 08:04:07;;;;;;;4.20;2.97;;;14.50;54.30;;;;;;4940766;29;20416;-72
2023/01/31 08:06:34;;;;;;;3.47;2.43;;;15.20;50.40;;;;;;4940548;29;20515;-72
2023/01/31 08:09:01;;;;;;;3.57;2.50;;;15.80;50.70;;;;;;4939607;29;20487;-71
2023/01/31 08:11:28;;;;;;;3.57;2.43;;;16.60;48.30;;;;;;4939482;29;20480;-72
2023/01/31 08:13:55;;;;;;;3.60;2.40;;;17.40;47.80;;;;;;4939873;29;20456;-71
2023/01/31 08:16:23;;;;;;;3.50;2.90;;;18.30;45.10;;;;;;4940616;29;20554;-72
2023/01/31 08:18:50;;;;;;;3.97;2.50;;;18.00;45.60;;;;;;4940034;29;20495;-72
2023/01/31 08:21:16;;;;;;;3.97;2.37;;;17.80;45.90;;;;;;4940239;29;20515;-72
2023/01/31 08:23:44;;;;;;;3.40;2.30;;;18.90;44.50;;;;;;4939812;29;20816;-72
2023/01/31 08:26:13;;;;;;;3.20;2.53;;;18.70;43.00;;;;;;4944962;29;20523;-72
2023/01/31 08:28:40;;;;;;;4.43;2.60;;;17.90;44.90;;;;;;4939630;29;20543;-72
2023/01/31 08:31:07;;;;;;;6.63;2.97;;;18.40;44.60;;;;;;4938739;29;21110;-71
2023/01/31 08:33:36;;;;;;;4.87;2.73;;;18.30;44.00;;;;;;4953262;29;20484;-71
2023/01/31 08:36:09;;;;;;;3.60;2.37;;;17.70;45.40;;;;;;4947750;29;20456;-71
2023/01/31 08:38:36;;;;;;;4.33;2.50;;;16.20;46.70;;;;;;4946657;29;20440;-71
2023/01/31 08:41:02;;;;;;;4.37;3.33;;;15.50;48.80;;;;;;4944557;29;20486;-71
2023/01/31 08:43:29;;;;;;;4.63;3.30;;;13.40;51.70;;;;;;4944564;29;20495;-71
2023/01/31 08:45:56;;;;;;;3.20;2.40;;;12.20;55.40;;;;;;4945096;29;20464;-71
2023/01/31 08:48:23;;;;;;;4.30;2.50;;;10.70;59.20;;;;;;4944043;29;20531;-71
2023/01/31 08:50:51;;;;;;;4.33;2.97;;;9.80;62.20;;;;;;4942183;29;20476;-71
2023/01/31 08:53:17;;;;;;;5.80;2.70;;;8.60;65.40;;;;;;4941150;29;20440;-72
2023/01/31 08:55:44;;;;;;;4.60;3.30;;;8.30;67.00;;;;;;4940271;29;20471;-70
2023/01/31 08:58:11;;;;;;;5.50;2.77;;;7.90;68.80;;;;;;4939355;29;20443;-71
2023/01/31 09:00:37;;;;;;;5.03;3.63;;;7.40;70.20;;;;;;4940700;29;20830;-72
2023/01/31 09:03:04;;;;;;;3.50;2.90;;;7.20;71.20;;;;;;4941313;29;20463;-71
2023/01/31 09:05:32;;;;;;;4.10;2.73;;;7.10;71.20;;;;;;4940058;29;20503;-72
2023/01/31 09:08:00;;;;;;;5.90;3.10;;;6.80;71.80;;;;;;4941691;29;20488;-71
2023/01/31 09:10:26;;;;;;;3.60;2.60;;;6.40;72.70;;;;;;4941230;29;20467;-72
2023/01/31 09:12:53;;;;;;;3.70;2.77;;;6.10;74.70;;;;;;4940859;29;20455;-72
2023/01/31 09:15:20;;;;;;;5.77;3.07;;;6.00;74.50;;;;;;4941747;29;20464;-72
2023/01/31 09:17:46;;;;;;;6.03;2.73;;;5.90;75.30;;;;;;4941499;29;20463;-72
2023/01/31 09:20:13;;;;;;;3.90;2.50;;;5.80;75.00;;;;;;4940792;29;20460;-72
2023/01/31 09:22:42;;;;;;;6.57;3.20;;;5.60;75.60;;;;;;4940711;29;21010;-72
2023/01/31 09:25:11;;;;;;;5.07;2.73;;;5.40;76.20;;;;;;4940389;29;20444;-72
2023/01/31 09:27:38;;;;;;;7.00;3.00;;;5.30;77.50;;;;;;4940753;29;20445;-71
2023/01/31 09:30:07;;;;;;;4.30;3.47;;;5.40;77.20;;;;;;4940354;29;20840;-70
2023/01/31 09:32:34;;;;;;;4.47;3.30;;;5.50;77.40;;;;;;4942586;29;20989;-71
2023/01/31 09:35:01;;;;;;;5.30;2.63;;;5.70;76.90;;;;;;4942165;29;20463;-73
2023/01/31 09:37:29;;;;;;;3.43;2.50;;;5.80;76.60;;;;;;4943207;29;20452;-71
2023/01/31 09:39:56;;;;;;;2.90;2.40;;;5.80;74.70;;;;;;4942104;29;20464;-70
2023/01/31 09:42:29;;;;;;;4.20;2.70;;;5.90;74.60;;;;;;4942939;29;20477;-70
2023/01/31 09:45:00;;;;;;;4.80;2.73;;;5.90;74.50;;;;;;4942692;29;20450;-71
2023/01/31 09:47:30;;;;;;;3.47;2.30;;;5.70;74.20;;;;;;4942639;29;20487;-72
2023/01/31 09:50:03;;;;;;;5.10;2.20;;;5.80;75.00;;;;;;4940484;29;20491;-70
2023/01/31 09:52:31;;;;;;;3.17;2.40;;;5.70;75.30;;;;;;4940178;29;20479;-71
2023/01/31 09:54:58;;;;;;;3.67;2.20;;;5.60;74.90;;;;;;4940353;29;20487;-72
2023/01/31 09:57:40;;;;;;;4.30;2.47;;;5.80;75.70;;;;;;4941236;29;20459;-71
2023/01/31 10:00:16;;;;;;;6.10;2.23;;;6.00;74.90;;;;;;4941550;29;20503;-71
2023/01/31 10:03:08;;;;;;;3.80;2.40;;;5.70;74.70;;;;;;4940567;29;20507;-74
2023/01/31 10:05:40;;;;;;;3.63;2.40;;;5.90;74.70;;;;;;4933323;29;20467;-71
2023/01/31 10:08:15;;;;;;;3.87;2.17;;;5.80;74.40;;;;;;4940743;29;20483;-72
2023/01/31 10:10:47;;;;;;;4.00;2.30;;;5.90;75.50;;;;;;4938936;29;20507;-70
2023/01/31 10:13:21;;;;;;;3.50;1.80;;;5.90;75.00;;;;;;4938208;29;20452;-71
2023/01/31 10:15:51;;;;;;;6.40;2.70;;;5.90;75.10;;;;;;4938760;29;20427;-70
2023/01/31 10:18:24;;;;;;;3.10;2.40;;;5.80;75.10;;;;;;4938933;29;20420;-71
2023/01/31 10:20:54;;;;;;;4.87;2.40;;;5.80;74.80;;;;;;4937764;29;20486;-70
2023/01/31 10:23:25;;;;;;;4.30;2.23;;;5.50;76.00;;;;;;4936915;29;20519;-70
2023/01/31 10:25:57;;;;;;;3.90;1.80;;;5.60;76.20;;;;;;4937531;29;20449;-69
2023/01/31 10:28:31;;;;;;;5.13;2.93;;;5.70;76.40;;;;;;4936572;29;20475;-70
2023/01/31 10:31:02;;;;;;;4.87;2.40;;;5.70;75.50;;;;;;4936966;29;20566;-69
2023/01/31 10:33:38;;;;;;;3.70;2.50;;;5.80;75.40;;;;;;4936685;29;20488;-69
2023/01/31 10:36:13;;;;;;;6.93;2.27;;;5.80;75.30;;;;;;4940109;29;20439;-70
2023/01/31 10:38:44;;;;;;;3.00;1.80;;;5.50;75.10;;;;;;4941855;29;20440;-70
2023/01/31 10:41:15;;;;;;;3.53;2.23;;;5.80;76.10;;;;;;4939981;29;20519;-71
2023/01/31 10:43:52;;;;;;;3.50;2.57;;;5.90;74.90;;;;;;4938793;29;20445;-71
2023/01/31 10:46:19;;;;;;;2.70;1.80;;;6.00;74.70;;;;;;4940722;29;20491;-71
2023/01/31 10:48:47;;;;;;;5.07;2.07;;;6.00;74.60;;;;;;4943246;29;20871;-71
2023/01/31 10:51:30;;;;;;;3.07;2.37;;;6.30;74.90;;;;;;4943371;29;20542;-71
2023/01/31 10:54:13;;;;;;;3.10;2.20;;;6.50;75.00;;;;;;4945084;29;20468;-71
2023/01/31 10:56:43;;;;;;;3.60;2.33;;;6.60;74.20;;;;;;4942909;29;20432;-72
2023/01/31 10:59:22;;;;;;;4.77;2.40;;;6.70;74.70;;;;;;4941237;29;21013;-71
2023/01/31 11:01:48;;;;;;;3.70;1.97;;;6.90;73.80;;;;;;4939925;29;20488;-71
2023/01/31 11:04:24;;;;;;;2.93;1.97;;;7.10;73.20;;;;;;4940202;29;20459;-69
2023/01/31 11:06:51;;;;;;;3.60;2.53;;;7.10;72.50;;;;;;4940495;29;20527;-69
2023/01/31 11:09:20;;;;;;;4.73;2.50;;;6.90;71.60;;;;;;4940554;29;20484;-70
2023/01/31 11:11:56;;;;;;;4.73;2.40;;;6.60;71.80;;;;;;4942850;29;20476;-70
2023/01/31 11:14:24;;;;;;;2.63;1.87;;;6.40;72.40;;;;;;4945333;29;20468;-71
2023/01/31 11:16:58;;;;;;;3.17;1.70;;;6.30;72.80;;;;;;4945028;29;20452;-70
2023/01/31 11:19:34;;;;;;;4.43;2.00;;;6.10;73.30;;;;;;4946578;29;20440;-71
2023/01/31 11:22:03;;;;;;;5.90;2.30;;;6.20;73.40;;;;;;4944346;29;20480;-70
2023/01/31 11:24:33;;;;;;;4.77;1.73;;;5.90;72.70;;;;;;4942813;29;20462;-70
2023/01/31 11:27:02;;;;;;;4.17;2.00;;;5.60;73.90;;;;;;4942102;29;20456;-70
2023/01/31 11:29:34;;;;;;;4.33;1.70;;;5.50;74.90;;;;;;4942774;29;20484;-70
2023/01/31 11:32:04;;;;;;;3.57;1.60;;;5.40;75.30;;;;;;4941973;29;20464;-71
2023/01/31 11:34:32;;;;;;;3.43;1.73;;;5.60;76.10;;;;;;4941066;29;20918;-71
2023/01/31 11:37:12;;;;;;;4.77;2.00;;;5.60;75.20;;;;;;4943113;29;20452;-73
2023/01/31 11:39:39;;;;;;;3.00;2.00;;;5.80;76.30;;;;;;4942643;29;20444;-71
2023/01/31 11:42:11;;;;;;;3.80;1.80;;;6.00;74.70;;;;;;4941902;29;20483;-71
2023/01/31 11:44:57;;;;;;;5.10;1.87;;;6.20;74.70;;;;;;4943420;29;20440;-71
2023/01/31 11:47:32;;;;;;;2.80;1.40;;;6.30;72.80;;;;;;4946107;29;20448;-69
2023/01/31 11:50:01;;;;;;;3.23;1.70;;;6.20;73.20;;;;;;4946613;29;20482;-71
2023/01/31 11:52:30;;;;;;;3.00;1.80;;;6.10;73.70;;;;;;4944748;29;20459;-73
2023/01/31 11:55:00;;;;;;;3.70;1.93;;;6.10;73.70;;;;;;4946948;29;20456;-69
2023/01/31 11:57:31;;;;;;;2.87;1.47;;;6.20;73.50;;;;;;4950127;29;20453;-71
2023/01/31 12:00:01;;;;;;;4.47;2.17;;;6.10;73.00;;;;;;4949875;29;20427;-70
2023/01/31 12:02:36;;;;;;;4.50;2.10;;;6.20;74.10;;;;;;4950538;29;20484;-71
2023/01/31 12:05:09;;;;;;;4.10;1.30;;;6.40;73.10;;;;;;4951257;29;20428;-71
2023/01/31 12:07:44;;;;;;;3.93;1.93;;;6.50;71.30;;;;;;4950306;29;20816;-71
2023/01/31 12:10:33;;;;;;;3.40;1.50;;;6.60;72.00;;;;;;4947165;29;20472;-71
2023/01/31 12:13:02;;;;;;;3.20;1.77;;;6.80;70.10;;;;;;4945631;29;20432;-71
2023/01/31 12:15:31;;;;;;;3.40;2.30;;;6.80;69.30;;;;;;4943190;29;20452;-71
2023/01/31 12:18:00;;;;;;;3.00;1.70;;;6.70;70.50;;;;;;4942617;29;20440;-71
2023/01/31 12:20:38;;;;;;;3.43;1.80;;;6.80;70.90;;;;;;4943122;29;20487;-70
2023/01/31 12:23:16;;;;;;;4.10;1.40;;;6.70;69.50;;;;;;4943973;29;20432;-70
2023/01/31 12:25:55;;;;;;;2.63;1.47;;;6.50;69.80;;;;;;4943573;29;20436;-70
2023/01/31 12:28:35;;;;;;;4.73;1.90;;;6.40;70.30;;;;;;4944454;29;20431;-71
2023/01/31 12:31:27;;;;;;;2.87;1.50;;;6.30;70.30;;;;;;4944940;29;20471;-72
2023/01/31 12:34:10;;;;;;;2.70;1.27;;;6.30;70.70;;;;;;4944364;29;20427;-70
2023/01/31 12:36:49;;;;;;;1.93;1.30;;;6.10;70.20;;;;;;4943600;29;20424;-71
2023/01/31 12:39:34;;;;;;;3.00;1.50;;;6.10;70.80;;;;;;4944583;29;20437;-71
2023/01/31 12:42:23;;;;;;;2.90;1.60;;;5.90;71.10;;;;;;4941397;29;20479;-70
2023/01/31 12:44:55;;;;;;;2.90;1.60;;;5.90;72.20;;;;;;4939951;29;20790;-71
2023/01/31 12:47:48;;;;;;;2.80;1.80;;;5.80;72.10;;;;;;4939505;29;20443;-71
2023/01/31 12:50:30;;;;;;;3.80;1.90;;;6.00;72.30;;;;;;4941634;29;20512;-70
2023/01/31 12:53:21;;;;;;;2.83;1.57;;;6.00;71.90;;;;;;4942150;29;20448;-70
2023/01/31 12:55:58;;;;;;;2.70;1.60;;;5.60;73.10;;;;;;4939087;29;20440;-69
2023/01/31 12:58:40;;;;;;;2.77;1.60;;;5.40;73.10;;;;;;4939689;29;20956;-70
2023/01/31 13:01:10;;;;;;;2.70;1.90;;;5.20;74.30;;;;;;4939386;29;20487;-70
2023/01/31 13:03:52;;;;;;;3.13;1.57;;;5.10;74.60;;;;;;4939655;29;20468;-70
2023/01/31 13:06:24;;;;;;;3.90;1.93;;;5.10;75.30;;;;;;4940077;29;20492;-70
2023/01/31 13:08:57;;;;;;;3.10;1.83;;;5.30;75.20;;;;;;4939715;29;20444;-70
2023/01/31 13:11:31;;;;;;;2.70;1.50;;;5.40;74.20;;;;;;4944689;29;20480;-71
2023/01/31 13:14:02;;;;;;;2.70;1.70;;;5.50;74.80;;;;;;4946983;29;20440;-70
2023/01/31 13:16:31;;;;;;;2.87;1.50;;;5.60;73.80;;;;;;4946244;29;20453;-71
2023/01/31 13:19:03;;;;;;;3.67;1.90;;;5.70;74.20;;;;;;4945943;29;20440;-72
2023/01/31 13:21:34;;;;;;;2.40;1.87;;;5.90;73.10;;;;;;4944641;29;20836;-71
2023/01/31 13:24:08;;;;;;;2.67;1.67;;;5.80;73.80;;;;;;4947126;29;20921;-71
2023/01/31 13:26:40;;;;;;;4.43;2.00;;;5.80;73.50;;;;;;4947289;29;20443;-70
2023/01/31 13:29:12;;;;;;;2.27;1.63;;;5.80;73.30;;;;;;4947677;29;21008;-70
2023/01/31 13:31:44;;;;;;;2.97;1.87;;;5.70;73.40;;;;;;4946854;29;20480;-71
2023/01/31 13:34:18;;;;;;;3.50;2.40;;;5.60;73.50;;;;;;4946220;29;20440;-70
2023/01/31 13:36:48;;;;;;;2.83;1.83;;;5.40;74.20;;;;;;4946208;29;20443;-71
2023/01/31 13:39:20;;;;;;;2.73;1.90;;;5.50;74.10;;;;;;4945727;29;20432;-71
2023/01/31 13:41:47;;;;;;;2.80;2.10;;;5.50;74.10;;;;;;4944727;29;20482;-70
2023/01/31 13:44:16;;;;;;;3.47;2.57;;;5.50;73.90;;;;;;4945907;29;20448;-71
2023/01/31 13:46:49;;;;;;;2.87;2.13;;;5.50;74.10;;;;;;4945061;29;20453;-70
2023/01/31 13:49:23;;;;;;;3.57;2.30;;;5.50;74.60;;;;;;4944893;29;21016;-70
2023/01/31 13:51:55;;;;;;;4.83;2.10;;;5.50;74.80;;;;;;4945243;29;20475;-71
2023/01/31 13:54:26;;;;;;;2.33;1.50;;;5.40;74.40;;;;;;4946274;29;20922;-71
2023/01/31 13:56:55;;;;;;;4.00;1.83;;;5.40;74.70;;;;;;4945165;29;20466;-69
2023/01/31 13:59:25;;;;;;;4.30;1.83;;;5.40;74.80;;;;;;4948569;29;20440;-71
2023/01/31 14:01:54;;;;;;;2.30;1.60;;;5.30;74.70;;;;;;4951992;29;20476;-71
2023/01/31 14:04:29;;;;;;;3.47;2.00;;;5.30;75.20;;;;;;4951994;29;20476;-71
2023/01/31 14:07:18;;;;;;;3.13;1.80;;;5.40;75.10;;;;;;4945062;29;20447;-70
2023/01/31 14:10:01;;;;;;;3.67;2.13;;;5.50;75.00;;;;;;4944822;29;20487;-69
2023/01/31 14:12:35;;;;;;;3.60;1.80;;;5.60;74.50;;;;;;4944618;29;20486;-70
2023/01/31 14:15:10;;;;;;;5.67;1.97;;;5.60;74.10;;;;;;4944657;29;20458;-70
2023/01/31 14:18:00;;;;;;;4.13;2.23;;;5.50;73.90;;;;;;4942728;29;20435;-69
2023/01/31 14:20:31;;;;;;;2.93;1.43;;;5.50;74.70;;;;;;4941837;29;20476;-70
2023/01/31 14:23:28;;;;;;;3.37;1.90;;;5.30;74.50;;;;;;4944885;29;20468;-69
2023/01/31 14:25:55;;;;;;;2.27;1.40;;;5.30;75.40;;;;;;4944915;29;20808;-73
2023/01/31 14:28:22;;;;;;;3.53;2.83;;;5.40;75.70;;;;;;4944904;29;20550;-70
2023/01/31 14:30:49;;;;;;;3.80;2.60;;;5.30;74.70;;;;;;4944577;29;20499;-70
2023/01/31 14:33:23;;;;;;;6.13;2.17;;;5.30;75.40;;;;;;4943923;29;20456;-71
2023/01/31 14:36:39;;;;;;;4.30;1.53;;;5.60;75.20;;;;;;4946252;29;20451;-70
2023/01/31 14:39:36;;;;;;;3.03;2.07;;;5.50;74.10;;;;;;4944559;29;20459;-70
2023/01/31 14:42:31;;;;;;;3.03;1.90;;;5.50;74.60;;;;;;4944860;29;20551;-72
2023/01/31 14:45:26;;;;;;;3.57;1.37;;;5.40;75.40;;;;;;4944873;29;20452;-71
2023/01/31 14:48:14;;;;;;;2.97;1.97;;;5.50;74.20;;;;;;4942866;29;20470;-70
2023/01/31 14:50:59;;;;;;;3.73;2.00;;;5.50;75.00;;;;;;4945389;29;20476;-70
2023/01/31 14:53:54;;;;;;;2.47;2.13;;;5.70;75.10;;;;;;4945771;29;20447;-71
2023/01/31 14:56:36;;;;;;;4.83;2.17;;;5.70;73.50;;;;;;4941326;29;20471;-69
2023/01/31 14:59:03;;;;;;;3.60;2.90;;;5.70;75.10;;;;;;4941127;29;20440;-71
2023/01/31 15:01:35;;;;;;;2.43;1.60;;;5.80;74.20;;;;;;4943764;29;20488;-71
2023/01/31 15:04:03;;;;;;;2.60;1.90;;;5.90;74.50;;;;;;4948182;29;20444;-69
2023/01/31 15:06:33;;;;;;;3.80;1.90;;;5.80;74.10;;;;;;4947182;29;20508;-69
2023/01/31 15:09:36;;;;;;;2.90;1.90;;;5.70;74.40;;;;;;4946014;29;20444;-70
2023/01/31 15:12:05;;;;;;;3.20;2.03;;;5.40;75.00;;;;;;4943916;29;20475;-70
2023/01/31 15:14:40;;;;;;;3.20;2.03;;;5.30;75.80;;;;;;4945115;29;20498;-70
2023/01/31 15:17:12;;;;;;;3.13;2.00;;;5.10;76.80;;;;;;4944951;29;20480;-70
2023/01/31 15:19:45;;;;;;;6.40;2.13;;;5.00;77.10;;;;;;4944888;29;20440;-71
2023/01/31 15:22:15;;;;;;;2.93;2.20;;;4.90;77.70;;;;;;4943437;29;20527;-70
2023/01/31 15:24:47;;;;;;;3.67;2.13;;;5.10;77.80;;;;;;4942495;29;20452;-72
2023/01/31 15:27:18;;;;;;;2.70;1.90;;;5.30;77.70;;;;;;4943543;29;20479;-72
2023/01/31 15:29:55;;;;;;;3.40;2.10;;;5.50;77.10;;;;;;4943689;29;20468;-73
2023/01/31 15:32:24;;;;;;;4.40;2.87;;;5.70;76.30;;;;;;4943039;29;20542;-73
2023/01/31 15:34:56;;;;;;;2.90;2.33;;;5.90;75.50;;;;;;4943932;29;20444;-71
2023/01/31 15:37:28;;;;;;;3.40;1.87;;;6.10;74.90;;;;;;4943978;29;20460;-71
2023/01/31 15:40:01;;;;;;;3.33;1.70;;;6.00;73.80;;;;;;4945221;29;20445;-71
2023/01/31 15:42:29;;;;;;;4.30;2.03;;;5.90;74.20;;;;;;4943719;29;20476;-71
2023/01/31 15:45:28;;;;;;;3.40;1.83;;;5.80;74.60;;;;;;4942983;29;20460;-72
2023/01/31 15:47:57;;;;;;;3.20;1.90;;;5.60;75.30;;;;;;4944614;29;21001;-72
2023/01/31 15:50:24;;;;;;;7.83;2.23;;;5.50;75.40;;;;;;4942633;29;20491;-71
2023/01/31 15:52:51;;;;;;;3.50;2.10;;;5.50;75.70;;;;;;4945671;29;20999;-73
2023/01/31 15:55:19;;;;;;;2.30;1.60;;;5.50;75.60;;;;;;4941941;29;20460;-72
2023/01/31 15:57:54;;;;;;;2.67;1.77;;;5.40;76.00;;;;;;4942830;29;20460;-73
2023/01/31 16:00:23;;;;;;;3.67;2.00;;;5.50;75.60;;;;;;4942539;29;20559;-72
2023/01/31 16:02:59;;;;;;;2.40;2.00;;;5.30;76.60;;;;;;4942651;29;20463;-71
2023/01/31 16:05:26;;;;;;;2.50;2.20;;;5.20;76.60;;;;;;4940811;29;20487;-72
2023/01/31 16:07:53;;;;;;;2.90;1.87;;;5.20;77.10;;;;;;4941161;29;20460;-72
2023/01/31 16:10:22;;;;;;;3.60;2.30;;;5.30;76.90;;;;;;4941064;29;20497;-72
2023/01/31 16:12:50;;;;;;;3.53;1.90;;;5.40;76.50;;;;;;4940986;29;20523;-72
2023/01/31 16:15:23;;;;;;;2.70;1.80;;;5.40;76.50;;;;;;4940264;29;20839;-69
2023/01/31 16:17:51;;;;;;;3.10;2.03;;;5.50;76.80;;;;;;4938325;29;20464;-71
2023/01/31 16:20:38;;;;;;;3.17;2.70;;;5.40;76.30;;;;;;4937856;29;20482;-70
2023/01/31 16:23:06;;;;;;;3.60;1.70;;;5.30;76.30;;;;;;4937869;29;20867;-72
2023/01/31 16:25:35;;;;;;;2.63;1.90;;;5.20;76.90;;;;;;4937615;29;20508;-71
2023/01/31 16:28:04;;;;;;;2.60;1.50;;;5.10;77.20;;;;;;4937557;29;20465;-71
2023/01/31 16:30:33;;;;;;;3.07;1.80;;;5.20;77.40;;;;;;4937982;29;20483;-72
2023/01/31 16:33:00;;;;;;;3.93;2.20;;;5.00;77.70;;;;;;4938353;29;20495;-71
2023/01/31 16:35:28;;;;;;;3.47;1.70;;;4.90;78.00;;;;;;4937648;29;20448;-72
2023/01/31 16:38:02;;;;;;;2.70;2.10;;;4.90;78.20;;;;;;4937500;29;20452;-72
2023/01/31 16:40:31;;;;;;;2.87;2.00;;;4.80;78.30;;;;;;4937317;29;20484;-72
2023/01/31 16:43:11;;;;;;;4.13;1.77;;;4.80;78.30;;;;;;4939086;29;20452;-73
2023/01/31 16:45:37;;;;;;;3.87;2.73;;;4.90;78.40;;;;;;4939038;29;20440;-73
2023/01/31 16:48:25;;;;;;;3.23;1.90;;;5.00;78.00;;;;;;4939362;29;20459;-73
2023/01/31 16:50:53;;;;;;;3.80;3.00;;;5.10;78.20;;;;;;4939735;29;20495;-72
2023/01/31 16:53:30;;;;;;;2.57;1.97;;;5.30;77.70;;;;;;4938417;29;20456;-73
2023/01/31 16:56:21;;;;;;;2.27;1.60;;;5.30;77.10;;;;;;4940043;29;20472;-73
2023/01/31 16:58:52;;;;;;;4.00;1.83;;;5.10;77.30;;;;;;4939934;29;20447;-72
2023/01/31 17:01:21;;;;;;;3.37;2.27;;;5.00;77.60;;;;;;4940894;29;21028;-72
2023/01/31 17:04:02;;;;;;;4.40;1.73;;;4.90;78.00;;;;;;4939367;29;20453;-71
2023/01/31 17:06:29;;;;;;;3.40;2.27;;;4.80;78.30;;;;;;4939309;29;20440;-73
2023/01/31 17:08:56;;;;;;;3.70;1.80;;;4.80;78.50;;;;;;4940625;29;20832;-73
2023/01/31 17:11:23;;;;;;;2.30;1.90;;;4.80;78.70;;;;;;4941171;29;20871;-73
2023/01/31 17:13:51;;;;;;;3.17;2.13;;;4.70;78.60;;;;;;4940306;29;20460;-71
2023/01/31 17:16:24;;;;;;;4.00;1.60;;;4.70;78.80;;;;;;4940210;29;20460;-73
2023/01/31 17:18:52;;;;;;;3.00;1.93;;;4.70;78.70;;;;;;4940059;29;20429;-73
2023/01/31 17:21:19;;;;;;;2.93;2.17;;;4.70;78.80;;;;;;4939712;29;20500;-72